Terminal Aerodrome Forecast
Issued by NWS King Salmon, AK

Home | Current Version | Previous Version | Text Only | Print | Product List | Glossary On
Versions: 1 2 3 4 5 6 7 8 9 10 11 12 13 14 15 16 17 18 19 20 21 22 23 24 25 26 27 28 29 30 31 32 33 34 35 36 37 38 39 40 41 42
000
FTAK31 PANC 301731
TAFAKN
TAF
PAKN 301731Z 3018/0118 14011KT P6SM BKN200
      TEMPO 3018/3019 2SM BR
     FM302200 14015G22KT P6SM SCT070 BKN150
     FM010600 12025G34KT P6SM SCT040 OVC060
     FM011200 12028G38KT 6SM -RA SCT025 OVC035=

USA.gov is the U.S. government's official web portal to all federal, state and local government web resources and services.